sensor_id;sensor_type;location;lat;lon;timestamp;P1;P2;P0
78842;PMS5003;70542;53.774;-0.352;2023-12-04T00:03:19;33;33;
78842;PMS5003;70542;53.774;-0.352;2023-12-04T00:08:58;33;33;
78842;PMS5003;70542;53.774;-0.352;2023-12-04T00:14:37;26;26;
78842;PMS5003;70542;53.774;-0.352;2023-12-04T00:20:16;31;27;
78842;PMS5003;70542;53.774;-0.352;2023-12-04T00:25:56;25;25;
78842;PMS5003;70542;53.774;-0.352;2023-12-04T00:31:55;22;22;
78842;PMS5003;70542;53.774;-0.352;2023-12-04T00:37:39;24;24;
78842;PMS5003;70542;53.774;-0.352;2023-12-04T00:43:18;28;28;
78842;PMS5003;70542;53.774;-0.352;2023-12-04T00:48:57;28;28;
78842;PMS5003;70542;53.774;-0.352;2023-12-04T00:54:38;23;23;
78842;PMS5003;70542;53.774;-0.352;2023-12-04T01:00:18;25;22;
78842;PMS5003;70542;53.774;-0.352;2023-12-04T01:05:57;31;29;
78842;PMS5003;70542;53.774;-0.352;2023-12-04T01:11:36;28;25;
78842;PMS5003;70542;53.774;-0.352;2023-12-04T01:17:15;32;29;
78842;PMS5003;70542;53.774;-0.352;2023-12-04T01:22:54;30;28;
78842;PMS5003;70542;53.774;-0.352;2023-12-04T01:28:34;40;40;
78842;PMS5003;70542;53.774;-0.352;2023-12-04T01:34:13;20;20;
78842;PMS5003;70542;53.774;-0.352;2023-12-04T01:39:52;28;25;
78842;PMS5003;70542;53.774;-0.352;2023-12-04T01:45:31;21;21;
78842;PMS5003;70542;53.774;-0.352;2023-12-04T01:51:10;20;20;
78842;PMS5003;70542;53.774;-0.352;2023-12-04T01:56:50;23;23;
78842;PMS5003;70542;53.774;-0.352;2023-12-04T02:02:29;27;27;
78842;PMS5003;70542;53.774;-0.352;2023-12-04T02:08:09;17;17;
78842;PMS5003;70542;53.774;-0.352;2023-12-04T02:13:48;29;25;
78842;PMS5003;70542;53.774;-0.352;2023-12-04T02:19:27;21;21;
78842;PMS5003;70542;53.774;-0.352;2023-12-04T02:25:13;24;24;
78842;PMS5003;70542;53.774;-0.352;2023-12-04T02:30:53;24;24;
78842;PMS5003;70542;53.774;-0.352;2023-12-04T02:36:33;17;14;
78842;PMS5003;70542;53.774;-0.352;2023-12-04T02:42:13;12;12;
78842;PMS5003;70542;53.774;-0.352;2023-12-04T02:47:52;23;20;
78842;PMS5003;70542;53.774;-0.352;2023-12-04T02:53:36;19;19;
78842;PMS5003;70542;53.774;-0.352;2023-12-04T02:59:23;22;22;
78842;PMS5003;70542;53.774;-0.352;2023-12-04T03:07:53;19;19;
78842;PMS5003;70542;53.774;-0.352;2023-12-04T03:13:32;20;20;
78842;PMS5003;70542;53.774;-0.352;2023-12-04T03:19:16;26;22;
78842;PMS5003;70542;53.774;-0.352;2023-12-04T03:24:55;21;21;
78842;PMS5003;70542;53.774;-0.352;2023-12-04T03:30:34;16;16;
78842;PMS5003;70542;53.774;-0.352;2023-12-04T03:36:13;20;20;
78842;PMS5003;70542;53.774;-0.352;2023-12-04T03:41:52;9;9;
78842;PMS5003;70542;53.774;-0.352;2023-12-04T03:47:32;9;9;
78842;PMS5003;70542;53.774;-0.352;2023-12-04T03:53:12;12;12;
78842;PMS5003;70542;53.774;-0.352;2023-12-04T03:58:52;16;16;
78842;PMS5003;70542;53.774;-0.352;2023-12-04T04:04:31;14;14;
78842;PMS5003;70542;53.774;-0.352;2023-12-04T04:10:10;14;11;
78842;PMS5003;70542;53.774;-0.352;2023-12-04T04:15:49;12;12;
78842;PMS5003;70542;53.774;-0.352;2023-12-04T04:21:29;12;12;
78842;PMS5003;70542;53.774;-0.352;2023-12-04T04:27:07;11;11;
78842;PMS5003;70542;53.774;-0.352;2023-12-04T04:32:46;13;10;
78842;PMS5003;70542;53.774;-0.352;2023-12-04T04:38:25;14;11;
78842;PMS5003;70542;53.774;-0.352;2023-12-04T04:44:04;15;14;
78842;PMS5003;70542;53.774;-0.352;2023-12-04T04:49:43;17;14;
78842;PMS5003;70542;53.774;-0.352;2023-12-04T04:55:21;14;14;
78842;PMS5003;70542;53.774;-0.352;2023-12-04T05:01:05;25;25;
78842;PMS5003;70542;53.774;-0.352;2023-12-04T05:06:48;23;23;
78842;PMS5003;70542;53.774;-0.352;2023-12-04T05:12:27;25;22;
78842;PMS5003;70542;53.774;-0.352;2023-12-04T05:18:06;23;21;
78842;PMS5003;70542;53.774;-0.352;2023-12-04T05:23:50;17;17;
78842;PMS5003;70542;53.774;-0.352;2023-12-04T05:29:34;28;25;
78842;PMS5003;70542;53.774;-0.352;2023-12-04T05:35:17;26;26;
78842;PMS5003;70542;53.774;-0.352;2023-12-04T05:41:07;14;14;
78842;PMS5003;70542;53.774;-0.352;2023-12-04T05:46:47;28;28;
78842;PMS5003;70542;53.774;-0.352;2023-12-04T05:52:26;29;29;
78842;PMS5003;70542;53.774;-0.352;2023-12-04T05:58:05;20;18;
78842;PMS5003;70542;53.774;-0.352;2023-12-04T06:03:44;18;18;
78842;PMS5003;70542;53.774;-0.352;2023-12-04T06:09:23;16;16;
78842;PMS5003;70542;53.774;-0.352;2023-12-04T06:15:22;11;11;
78842;PMS5003;70542;53.774;-0.352;2023-12-04T06:21:01;17;17;
78842;PMS5003;70542;53.774;-0.352;2023-12-04T06:26:40;14;14;
78842;PMS5003;70542;53.774;-0.352;2023-12-04T06:32:34;27;19;
78842;PMS5003;70542;53.774;-0.352;2023-12-04T06:38:14;9;9;
78842;PMS5003;70542;53.774;-0.352;2023-12-04T06:44:00;28;26;
78842;PMS5003;70542;53.774;-0.352;2023-12-04T06:49:39;12;12;
78842;PMS5003;70542;53.774;-0.352;2023-12-04T06:55:18;9;9;
78842;PMS5003;70542;53.774;-0.352;2023-12-04T07:00:58;16;16;
78842;PMS5003;70542;53.774;-0.352;2023-12-04T07:06:37;12;12;
78842;PMS5003;70542;53.774;-0.352;2023-12-04T07:12:31;12;12;
78842;PMS5003;70542;53.774;-0.352;2023-12-04T07:18:10;14;10;
78842;PMS5003;70542;53.774;-0.352;2023-12-04T07:23:54;6;6;
78842;PMS5003;70542;53.774;-0.352;2023-12-04T07:29:33;7;7;
78842;PMS5003;70542;53.774;-0.352;2023-12-04T07:35:17;11;11;
78842;PMS5003;70542;53.774;-0.352;2023-12-04T07:41:07;11;11;
78842;PMS5003;70542;53.774;-0.352;2023-12-04T07:46:45;10;6;
78842;PMS5003;70542;53.774;-0.352;2023-12-04T07:52:24;1;1;
78842;PMS5003;70542;53.774;-0.352;2023-12-04T07:58:19;13;10;
78842;PMS5003;70542;53.774;-0.352;2023-12-04T08:04:03;12;12;
78842;PMS5003;70542;53.774;-0.352;2023-12-04T08:09:42;31;27;
78842;PMS5003;70542;53.774;-0.352;2023-12-04T08:15:39;8;8;
78842;PMS5003;70542;53.774;-0.352;2023-12-04T08:21:18;19;19;
78842;PMS5003;70542;53.774;-0.352;2023-12-04T08:26:57;9;9;
78842;PMS5003;70542;53.774;-0.352;2023-12-04T08:32:36;15;15;
78842;PMS5003;70542;53.774;-0.352;2023-12-04T08:38:19;10;10;
78842;PMS5003;70542;53.774;-0.352;2023-12-04T08:44:02;16;15;
78842;PMS5003;70542;53.774;-0.352;2023-12-04T08:49:43;5;5;
78842;PMS5003;70542;53.774;-0.352;2023-12-04T08:55:22;17;14;
78842;PMS5003;70542;53.774;-0.352;2023-12-04T09:01:01;20;20;
78842;PMS5003;70542;53.774;-0.352;2023-12-04T09:06:44;7;7;
78842;PMS5003;70542;53.774;-0.352;2023-12-04T09:12:28;12;12;
78842;PMS5003;70542;53.774;-0.352;2023-12-04T09:18:08;16;16;
78842;PMS5003;70542;53.774;-0.352;2023-12-04T09:23:47;11;11;
78842;PMS5003;70542;53.774;-0.352;2023-12-04T09:29:27;13;13;
78842;PMS5003;70542;53.774;-0.352;2023-12-04T09:35:10;7;7;
78842;PMS5003;70542;53.774;-0.352;2023-12-04T09:40:49;10;10;
78842;PMS5003;70542;53.774;-0.352;2023-12-04T09:46:34;15;11;
78842;PMS5003;70542;53.774;-0.352;2023-12-04T09:52:17;8;8;
78842;PMS5003;70542;53.774;-0.352;2023-12-04T09:58:03;15;13;
78842;PMS5003;70542;53.774;-0.352;2023-12-04T10:03:49;10;10;
78842;PMS5003;70542;53.774;-0.352;2023-12-04T10:09:28;17;17;
78842;PMS5003;70542;53.774;-0.352;2023-12-04T10:15:08;10;10;
78842;PMS5003;70542;53.774;-0.352;2023-12-04T10:21:02;9;9;
78842;PMS5003;70542;53.774;-0.352;2023-12-04T10:26:49;10;10;
78842;PMS5003;70542;53.774;-0.352;2023-12-04T10:32:28;8;8;
78842;PMS5003;70542;53.774;-0.352;2023-12-04T10:38:07;6;6;
78842;PMS5003;70542;53.774;-0.352;2023-12-04T10:43:47;6;4;
78842;PMS5003;70542;53.774;-0.352;2023-12-04T10:55:36;8;8;
78842;PMS5003;70542;53.774;-0.352;2023-12-04T11:01:16;3;3;
78842;PMS5003;70542;53.774;-0.352;2023-12-04T11:06:57;6;6;
78842;PMS5003;70542;53.774;-0.352;2023-12-04T11:12:45;7;7;
78842;PMS5003;70542;53.774;-0.352;2023-12-04T11:18:36;6;6;
78842;PMS5003;70542;53.774;-0.352;2023-12-04T11:24:23;9;9;
78842;PMS5003;70542;53.774;-0.352;2023-12-04T11:30:06;8;5;
78842;PMS5003;70542;53.774;-0.352;2023-12-04T11:36:13;8;4;
78842;PMS5003;70542;53.774;-0.352;2023-12-04T11:41:58;1;1;
78842;PMS5003;70542;53.774;-0.352;2023-12-04T11:47:49;5;5;
78842;PMS5003;70542;53.774;-0.352;2023-12-04T11:53:39;2;2;
78842;PMS5003;70542;53.774;-0.352;2023-12-04T11:59:25;2;2;
78842;PMS5003;70542;53.774;-0.352;2023-12-04T12:05:07;3;3;
78842;PMS5003;70542;53.774;-0.352;2023-12-04T12:10:51;6;3;
78842;PMS5003;70542;53.774;-0.352;2023-12-04T12:16:31;6;6;
78842;PMS5003;70542;53.774;-0.352;2023-12-04T12:22:27;3;3;
78842;PMS5003;70542;53.774;-0.352;2023-12-04T12:28:07;13;13;
78842;PMS5003;70542;53.774;-0.352;2023-12-04T12:33:48;16;16;
78842;PMS5003;70542;53.774;-0.352;2023-12-04T12:39:26;2;2;
78842;PMS5003;70542;53.774;-0.352;2023-12-04T12:45:18;5;5;
78842;PMS5003;70542;53.774;-0.352;2023-12-04T12:51:27;16;16;
78842;PMS5003;70542;53.774;-0.352;2023-12-04T12:57:17;7;7;
78842;PMS5003;70542;53.774;-0.352;2023-12-04T13:02:56;7;7;
78842;PMS5003;70542;53.774;-0.352;2023-12-04T13:08:34;3;3;
78842;PMS5003;70542;53.774;-0.352;2023-12-04T13:14:17;10;6;
78842;PMS5003;70542;53.774;-0.352;2023-12-04T13:19:55;4;4;
78842;PMS5003;70542;53.774;-0.352;2023-12-04T13:25:48;10;10;
78842;PMS5003;70542;53.774;-0.352;2023-12-04T13:31:26;6;6;
78842;PMS5003;70542;53.774;-0.352;2023-12-04T13:37:06;3;3;
78842;PMS5003;70542;53.774;-0.352;2023-12-04T13:42:52;3;3;
78842;PMS5003;70542;53.774;-0.352;2023-12-04T13:48:31;6;6;
78842;PMS5003;70542;53.774;-0.352;2023-12-04T13:54:10;5;5;
78842;PMS5003;70542;53.774;-0.352;2023-12-04T13:59:49;6;6;
78842;PMS5003;70542;53.774;-0.352;2023-12-04T14:05:35;12;12;
78842;PMS5003;70542;53.774;-0.352;2023-12-04T14:11:17;13;13;
78842;PMS5003;70542;53.774;-0.352;2023-12-04T14:16:56;15;11;
78842;PMS5003;70542;53.774;-0.352;2023-12-04T14:22:35;9;9;
78842;PMS5003;70542;53.774;-0.352;2023-12-04T14:28:25;7;7;
78842;PMS5003;70542;53.774;-0.352;2023-12-04T14:34:04;8;8;
78842;PMS5003;70542;53.774;-0.352;2023-12-04T14:39:43;7;7;
78842;PMS5003;70542;53.774;-0.352;2023-12-04T14:45:22;8;8;
78842;PMS5003;70542;53.774;-0.352;2023-12-04T14:51:05;2;2;
78842;PMS5003;70542;53.774;-0.352;2023-12-04T14:56:48;7;7;
78842;PMS5003;70542;53.774;-0.352;2023-12-04T15:02:43;5;5;
78842;PMS5003;70542;53.774;-0.352;2023-12-04T15:08:22;6;6;
78842;PMS5003;70542;53.774;-0.352;2023-12-04T15:14:03;9;9;
78842;PMS5003;70542;53.774;-0.352;2023-12-04T15:19:58;7;7;
78842;PMS5003;70542;53.774;-0.352;2023-12-04T15:25:49;11;11;
78842;PMS5003;70542;53.774;-0.352;2023-12-04T15:31:27;9;9;
78842;PMS5003;70542;53.774;-0.352;2023-12-04T15:37:06;15;11;
78842;PMS5003;70542;53.774;-0.352;2023-12-04T15:42:50;8;8;
78842;PMS5003;70542;53.774;-0.352;2023-12-04T15:48:34;13;13;
78842;PMS5003;70542;53.774;-0.352;2023-12-04T15:54:13;10;7;
78842;PMS5003;70542;53.774;-0.352;2023-12-04T15:59:51;11;8;
78842;PMS5003;70542;53.774;-0.352;2023-12-04T16:05:30;18;18;
78842;PMS5003;70542;53.774;-0.352;2023-12-04T16:11:16;27;20;
78842;PMS5003;70542;53.774;-0.352;2023-12-04T16:16:56;11;11;
78842;PMS5003;70542;53.774;-0.352;2023-12-04T16:22:35;13;13;
78842;PMS5003;70542;53.774;-0.352;2023-12-04T16:28:14;8;8;
78842;PMS5003;70542;53.774;-0.352;2023-12-04T16:33:53;9;9;
78842;PMS5003;70542;53.774;-0.352;2023-12-04T16:39:31;15;15;
78842;PMS5003;70542;53.774;-0.352;2023-12-04T16:45:20;14;14;
78842;PMS5003;70542;53.774;-0.352;2023-12-04T16:51:00;13;11;
78842;PMS5003;70542;53.774;-0.352;2023-12-04T16:56:44;8;8;
78842;PMS5003;70542;53.774;-0.352;2023-12-04T17:02:31;8;8;
78842;PMS5003;70542;53.774;-0.352;2023-12-04T17:08:12;7;7;
78842;PMS5003;70542;53.774;-0.352;2023-12-04T17:13:55;15;12;
78842;PMS5003;70542;53.774;-0.352;2023-12-04T17:19:38;9;9;
78842;PMS5003;70542;53.774;-0.352;2023-12-04T17:25:22;6;6;
78842;PMS5003;70542;53.774;-0.352;2023-12-04T17:31:07;9;7;
78842;PMS5003;70542;53.774;-0.352;2023-12-04T17:37:00;14;14;
78842;PMS5003;70542;53.774;-0.352;2023-12-04T17:42:39;6;6;
78842;PMS5003;70542;53.774;-0.352;2023-12-04T17:48:18;7;7;
78842;PMS5003;70542;53.774;-0.352;2023-12-04T17:53:57;6;6;
78842;PMS5003;70542;53.774;-0.352;2023-12-04T17:59:54;6;6;
78842;PMS5003;70542;53.774;-0.352;2023-12-04T18:05:33;10;10;
78842;PMS5003;70542;53.774;-0.352;2023-12-04T18:11:16;7;7;
78842;PMS5003;70542;53.774;-0.352;2023-12-04T18:16:55;9;9;
78842;PMS5003;70542;53.774;-0.352;2023-12-04T18:22:34;10;10;
78842;PMS5003;70542;53.774;-0.352;2023-12-04T18:28:13;10;10;
78842;PMS5003;70542;53.774;-0.352;2023-12-04T18:33:52;8;8;
78842;PMS5003;70542;53.774;-0.352;2023-12-04T18:39:35;10;10;
78842;PMS5003;70542;53.774;-0.352;2023-12-04T18:45:23;11;11;
78842;PMS5003;70542;53.774;-0.352;2023-12-04T18:51:02;17;14;
78842;PMS5003;70542;53.774;-0.352;2023-12-04T18:56:46;8;8;
78842;PMS5003;70542;53.774;-0.352;2023-12-04T19:02:31;8;8;
78842;PMS5003;70542;53.774;-0.352;2023-12-04T19:08:09;16;12;
78842;PMS5003;70542;53.774;-0.352;2023-12-04T19:13:56;9;9;
78842;PMS5003;70542;53.774;-0.352;2023-12-04T19:19:35;11;11;
78842;PMS5003;70542;53.774;-0.352;2023-12-04T19:25:24;15;12;
78842;PMS5003;70542;53.774;-0.352;2023-12-04T19:31:03;8;8;
78842;PMS5003;70542;53.774;-0.352;2023-12-04T19:36:42;12;12;
78842;PMS5003;70542;53.774;-0.352;2023-12-04T19:42:29;12;12;
78842;PMS5003;70542;53.774;-0.352;2023-12-04T19:48:08;22;19;
78842;PMS5003;70542;53.774;-0.352;2023-12-04T19:53:50;16;16;
78842;PMS5003;70542;53.774;-0.352;2023-12-04T19:59:28;11;11;
78842;PMS5003;70542;53.774;-0.352;2023-12-04T20:05:11;17;17;
78842;PMS5003;70542;53.774;-0.352;2023-12-04T20:11:05;12;12;
78842;PMS5003;70542;53.774;-0.352;2023-12-04T20:17:01;15;12;
78842;PMS5003;70542;53.774;-0.352;2023-12-04T20:22:40;15;15;
78842;PMS5003;70542;53.774;-0.352;2023-12-04T20:28:19;20;20;
78842;PMS5003;70542;53.774;-0.352;2023-12-04T20:33:58;16;15;
78842;PMS5003;70542;53.774;-0.352;2023-12-04T20:39:42;16;16;
78842;PMS5003;70542;53.774;-0.352;2023-12-04T20:46:53;12;12;
78842;PMS5003;70542;53.774;-0.352;2023-12-04T20:52:32;12;12;
78842;PMS5003;70542;53.774;-0.352;2023-12-04T20:58:16;8;8;
78842;PMS5003;70542;53.774;-0.352;2023-12-04T21:04:09;12;12;
78842;PMS5003;70542;53.774;-0.352;2023-12-04T21:09:53;10;10;
78842;PMS5003;70542;53.774;-0.352;2023-12-04T21:15:36;7;7;
78842;PMS5003;70542;53.774;-0.352;2023-12-04T21:21:15;9;9;
78842;PMS5003;70542;53.774;-0.352;2023-12-04T21:26:55;15;14;
78842;PMS5003;70542;53.774;-0.352;2023-12-04T21:32:33;17;17;
78842;PMS5003;70542;53.774;-0.352;2023-12-04T21:38:42;11;11;
78842;PMS5003;70542;53.774;-0.352;2023-12-04T21:44:49;20;20;
78842;PMS5003;70542;53.774;-0.352;2023-12-04T21:50:43;14;14;
78842;PMS5003;70542;53.774;-0.352;2023-12-04T21:56:38;12;12;
78842;PMS5003;70542;53.774;-0.352;2023-12-04T22:02:23;10;10;
78842;PMS5003;70542;53.774;-0.352;2023-12-04T22:08:16;10;10;
78842;PMS5003;70542;53.774;-0.352;2023-12-04T22:14:05;13;13;
78842;PMS5003;70542;53.774;-0.352;2023-12-04T22:19:57;11;9;
78842;PMS5003;70542;53.774;-0.352;2023-12-04T22:25:41;11;11;
78842;PMS5003;70542;53.774;-0.352;2023-12-04T22:31:19;13;13;
78842;PMS5003;70542;53.774;-0.352;2023-12-04T22:36:58;12;12;
78842;PMS5003;70542;53.774;-0.352;2023-12-04T22:42:37;6;6;
78842;PMS5003;70542;53.774;-0.352;2023-12-04T22:48:16;13;13;
78842;PMS5003;70542;53.774;-0.352;2023-12-04T22:53:55;9;9;
78842;PMS5003;70542;53.774;-0.352;2023-12-04T22:59:39;8;8;
78842;PMS5003;70542;53.774;-0.352;2023-12-04T23:05:22;20;20;
78842;PMS5003;70542;53.774;-0.352;2023-12-04T23:11:11;8;8;
78842;PMS5003;70542;53.774;-0.352;2023-12-04T23:16:51;13;11;
78842;PMS5003;70542;53.774;-0.352;2023-12-04T23:22:30;9;9;
78842;PMS5003;70542;53.774;-0.352;2023-12-04T23:28:24;11;11;
78842;PMS5003;70542;53.774;-0.352;2023-12-04T23:34:23;16;13;
78842;PMS5003;70542;53.774;-0.352;2023-12-04T23:40:02;12;12;
78842;PMS5003;70542;53.774;-0.352;2023-12-04T23:45:41;15;15;
78842;PMS5003;70542;53.774;-0.352;2023-12-04T23:51:20;16;14;
78842;PMS5003;70542;53.774;-0.352;2023-12-04T23:57:04;15;15;
